sensor_id;sensor_type;location;lat;lon;timestamp;pressure;altitude;pressure_sealevel;temperature;humidity
73338;BME280;61575;49.908;35.556;2023-07-13T00:02:30;99168.00;;;13.95;69.38
73338;BME280;61575;49.908;35.556;2023-07-13T00:05:31;99169.03;;;13.94;69.53
73338;BME280;61575;49.908;35.556;2023-07-13T00:08:34;99164.66;;;13.93;69.58
73338;BME280;61575;49.908;35.556;2023-07-13T00:11:36;99166.09;;;13.89;69.44
73338;BME280;61575;49.908;35.556;2023-07-13T00:14:38;99165.25;;;13.89;69.79
73338;BME280;61575;49.908;35.556;2023-07-13T00:17:40;99162.75;;;13.87;70.04
73338;BME280;61575;49.908;35.556;2023-07-13T00:20:42;99163.78;;;13.86;69.73
73338;BME280;61575;49.908;35.556;2023-07-13T00:23:45;99159.81;;;13.82;69.87
73338;BME280;61575;49.908;35.556;2023-07-13T00:26:47;99156.72;;;13.85;70.08
73338;BME280;61575;49.908;35.556;2023-07-13T00:29:49;99154.44;;;13.82;70.21
73338;BME280;61575;49.908;35.556;2023-07-13T00:32:52;99157.72;;;13.77;70.46
73338;BME280;61575;49.908;35.556;2023-07-13T00:36:10;99157.09;;;13.75;70.40
73338;BME280;61575;49.908;35.556;2023-07-13T00:39:12;99163.53;;;13.74;70.41
73338;BME280;61575;49.908;35.556;2023-07-13T00:42:15;99153.31;;;13.70;70.68
73338;BME280;61575;49.908;35.556;2023-07-13T00:48:21;99151.84;;;13.67;71.12
73338;BME280;61575;49.908;35.556;2023-07-13T00:51:31;99149.75;;;13.63;71.36
73338;BME280;61575;49.908;35.556;2023-07-13T00:54:40;99147.25;;;13.61;71.23
73338;BME280;61575;49.908;35.556;2023-07-13T00:57:44;99153.03;;;13.58;71.35
73338;BME280;61575;49.908;35.556;2023-07-13T01:00:46;99159.03;;;13.54;71.51
73338;BME280;61575;49.908;35.556;2023-07-13T01:03:50;99155.69;;;13.52;71.60
73338;BME280;61575;49.908;35.556;2023-07-13T01:06:52;99149.66;;;13.50;71.65
73338;BME280;61575;49.908;35.556;2023-07-13T01:09:55;99154.22;;;13.49;71.55
73338;BME280;61575;49.908;35.556;2023-07-13T01:12:57;99155.25;;;13.48;71.51
73338;BME280;61575;49.908;35.556;2023-07-13T01:16:05;99157.53;;;13.44;71.87
73338;BME280;61575;49.908;35.556;2023-07-13T01:22:27;99158.09;;;13.40;71.90
73338;BME280;61575;49.908;35.556;2023-07-13T01:25:32;99159.34;;;13.37;71.96
73338;BME280;61575;49.908;35.556;2023-07-13T01:28:34;99165.47;;;13.31;72.35
73338;BME280;61575;49.908;35.556;2023-07-13T01:31:42;99164.22;;;13.27;72.19
73338;BME280;61575;49.908;35.556;2023-07-13T01:34:46;99161.91;;;13.24;72.27
73338;BME280;61575;49.908;35.556;2023-07-13T01:37:49;99158.97;;;13.19;72.69
73338;BME280;61575;49.908;35.556;2023-07-13T01:40:52;99167.44;;;13.16;72.68
73338;BME280;61575;49.908;35.556;2023-07-13T01:43:54;99170.53;;;13.13;72.77
73338;BME280;61575;49.908;35.556;2023-07-13T01:46:57;99165.53;;;13.10;72.88
73338;BME280;61575;49.908;35.556;2023-07-13T01:49:59;99167.78;;;13.06;73.18
73338;BME280;61575;49.908;35.556;2023-07-13T01:53:02;99164.25;;;13.06;73.25
73338;BME280;61575;49.908;35.556;2023-07-13T01:56:04;99168.16;;;13.03;73.78
73338;BME280;61575;49.908;35.556;2023-07-13T01:59:06;99167.13;;;13.04;73.60
73338;BME280;61575;49.908;35.556;2023-07-13T02:02:08;99169.81;;;13.04;73.55
73338;BME280;61575;49.908;35.556;2023-07-13T02:05:11;99164.44;;;13.04;73.47
73338;BME280;61575;49.908;35.556;2023-07-13T02:08:15;99176.25;;;13.03;73.58
73338;BME280;61575;49.908;35.556;2023-07-13T02:11:17;99170.03;;;13.03;73.91
73338;BME280;61575;49.908;35.556;2023-07-13T02:14:19;99174.00;;;13.07;73.89
73338;BME280;61575;49.908;35.556;2023-07-13T02:17:21;99168.03;;;13.11;73.75
73338;BME280;61575;49.908;35.556;2023-07-13T02:20:24;99162.25;;;13.14;73.33
73338;BME280;61575;49.908;35.556;2023-07-13T02:23:26;99163.72;;;13.17;74.21
73338;BME280;61575;49.908;35.556;2023-07-13T02:26:28;99162.94;;;13.23;73.66
73338;BME280;61575;49.908;35.556;2023-07-13T02:29:30;99157.53;;;13.23;73.83
73338;BME280;61575;49.908;35.556;2023-07-13T02:32:32;99161.91;;;13.24;73.68
73338;BME280;61575;49.908;35.556;2023-07-13T02:35:34;99157.97;;;13.27;73.73
73338;BME280;61575;49.908;35.556;2023-07-13T02:38:36;99166.50;;;13.30;73.52
73338;BME280;61575;49.908;35.556;2023-07-13T02:41:38;99160.16;;;13.38;72.74
73338;BME280;61575;49.908;35.556;2023-07-13T02:44:40;99171.00;;;13.44;72.85
73338;BME280;61575;49.908;35.556;2023-07-13T02:47:42;99162.97;;;13.51;72.31
73338;BME280;61575;49.908;35.556;2023-07-13T02:50:45;99166.53;;;13.58;72.17
73338;BME280;61575;49.908;35.556;2023-07-13T02:53:47;99170.94;;;13.66;72.00
73338;BME280;61575;49.908;35.556;2023-07-13T02:56:49;99166.03;;;13.76;71.64
73338;BME280;61575;49.908;35.556;2023-07-13T02:59:51;99177.28;;;13.86;70.88
73338;BME280;61575;49.908;35.556;2023-07-13T03:02:54;99166.53;;;13.93;70.80
73338;BME280;61575;49.908;35.556;2023-07-13T03:06:01;99170.53;;;14.03;70.46
73338;BME280;61575;49.908;35.556;2023-07-13T03:09:11;99174.91;;;14.11;70.19
73338;BME280;61575;49.908;35.556;2023-07-13T03:12:18;99186.34;;;14.13;70.38
73338;BME280;61575;49.908;35.556;2023-07-13T03:15:20;99184.50;;;14.20;70.32
73338;BME280;61575;49.908;35.556;2023-07-13T03:18:25;99196.38;;;14.26;70.27
73338;BME280;61575;49.908;35.556;2023-07-13T03:21:27;99190.56;;;14.29;70.07
73338;BME280;61575;49.908;35.556;2023-07-13T03:24:29;99194.53;;;14.33;69.80
73338;BME280;61575;49.908;35.556;2023-07-13T03:27:32;99198.31;;;14.38;70.04
73338;BME280;61575;49.908;35.556;2023-07-13T03:30:34;99196.91;;;14.49;69.81
73338;BME280;61575;49.908;35.556;2023-07-13T03:33:36;99196.50;;;14.59;69.67
73338;BME280;61575;49.908;35.556;2023-07-13T03:36:39;99202.13;;;14.70;69.41
73338;BME280;61575;49.908;35.556;2023-07-13T03:39:44;99210.91;;;14.79;69.42
73338;BME280;61575;49.908;35.556;2023-07-13T03:42:47;99204.06;;;14.96;68.90
73338;BME280;61575;49.908;35.556;2023-07-13T03:45:52;99223.44;;;15.13;68.54
73338;BME280;61575;49.908;35.556;2023-07-13T03:48:54;99217.19;;;15.32;68.36
73338;BME280;61575;49.908;35.556;2023-07-13T03:51:56;99217.19;;;15.52;67.58
73338;BME280;61575;49.908;35.556;2023-07-13T03:54:59;99222.00;;;15.77;66.65
73338;BME280;61575;49.908;35.556;2023-07-13T04:01:27;99220.56;;;16.38;64.88
73338;BME280;61575;49.908;35.556;2023-07-13T04:04:29;99227.00;;;16.57;64.10
73338;BME280;61575;49.908;35.556;2023-07-13T04:07:32;99225.50;;;16.99;63.77
73338;BME280;61575;49.908;35.556;2023-07-13T04:10:34;99227.75;;;17.34;62.88
73338;BME280;61575;49.908;35.556;2023-07-13T04:13:36;99228.63;;;17.59;62.19
73338;BME280;61575;49.908;35.556;2023-07-13T04:16:38;99232.25;;;17.96;61.68
73338;BME280;61575;49.908;35.556;2023-07-13T04:19:40;99232.34;;;18.26;60.81
73338;BME280;61575;49.908;35.556;2023-07-13T04:22:42;99230.41;;;18.52;59.94
73338;BME280;61575;49.908;35.556;2023-07-13T04:25:45;99230.88;;;18.79;59.27
73338;BME280;61575;49.908;35.556;2023-07-13T04:28:48;99237.44;;;18.89;58.24
73338;BME280;61575;49.908;35.556;2023-07-13T04:31:50;99238.00;;;19.21;57.96
73338;BME280;61575;49.908;35.556;2023-07-13T04:34:52;99236.66;;;19.42;57.76
73338;BME280;61575;49.908;35.556;2023-07-13T04:37:57;99236.00;;;19.70;56.78
73338;BME280;61575;49.908;35.556;2023-07-13T04:41:02;99234.66;;;20.08;57.03
73338;BME280;61575;49.908;35.556;2023-07-13T04:44:04;99233.22;;;20.29;56.28
73338;BME280;61575;49.908;35.556;2023-07-13T04:47:06;99231.59;;;20.68;55.81
73338;BME280;61575;49.908;35.556;2023-07-13T04:50:08;99231.81;;;21.06;54.66
73338;BME280;61575;49.908;35.556;2023-07-13T04:53:13;99226.97;;;21.42;53.81
73338;BME280;61575;49.908;35.556;2023-07-13T04:56:15;99229.91;;;21.86;52.85
73338;BME280;61575;49.908;35.556;2023-07-13T04:59:17;99230.59;;;22.14;52.81
73338;BME280;61575;49.908;35.556;2023-07-13T05:02:20;99227.28;;;22.12;51.31
73338;BME280;61575;49.908;35.556;2023-07-13T05:05:26;99237.25;;;22.02;51.03
73338;BME280;61575;49.908;35.556;2023-07-13T05:08:29;99231.13;;;21.95;51.04
73338;BME280;61575;49.908;35.556;2023-07-13T05:11:31;99233.84;;;22.11;50.15
73338;BME280;61575;49.908;35.556;2023-07-13T05:14:33;99224.31;;;22.36;49.63
73338;BME280;61575;49.908;35.556;2023-07-13T05:17:35;99232.75;;;22.73;50.56
73338;BME280;61575;49.908;35.556;2023-07-13T05:20:37;99230.81;;;22.95;48.82
73338;BME280;61575;49.908;35.556;2023-07-13T05:23:39;99233.25;;;23.19;48.71
73338;BME280;61575;49.908;35.556;2023-07-13T05:26:43;99238.06;;;23.33;47.96
73338;BME280;61575;49.908;35.556;2023-07-13T05:29:45;99233.34;;;23.29;47.82
73338;BME280;61575;49.908;35.556;2023-07-13T05:32:47;99238.00;;;23.28;47.52
73338;BME280;61575;49.908;35.556;2023-07-13T05:35:50;99246.16;;;22.96;46.99
73338;BME280;61575;49.908;35.556;2023-07-13T05:38:52;99240.75;;;22.79;47.73
73338;BME280;61575;49.908;35.556;2023-07-13T05:41:54;99245.63;;;22.99;48.55
73338;BME280;61575;49.908;35.556;2023-07-13T05:44:57;99246.97;;;23.19;48.09
73338;BME280;61575;49.908;35.556;2023-07-13T05:47:58;99252.63;;;23.39;47.13
73338;BME280;61575;49.908;35.556;2023-07-13T05:51:01;99239.94;;;23.60;47.28
73338;BME280;61575;49.908;35.556;2023-07-13T05:54:03;99244.59;;;23.91;46.67
73338;BME280;61575;49.908;35.556;2023-07-13T05:57:05;99250.34;;;23.90;45.73
73338;BME280;61575;49.908;35.556;2023-07-13T06:00:07;99248.63;;;24.21;46.57
73338;BME280;61575;49.908;35.556;2023-07-13T06:03:13;99252.28;;;24.36;46.00
73338;BME280;61575;49.908;35.556;2023-07-13T06:06:16;99248.53;;;24.53;45.95
73338;BME280;61575;49.908;35.556;2023-07-13T06:09:18;99249.28;;;24.43;44.72
73338;BME280;61575;49.908;35.556;2023-07-13T06:12:20;99244.78;;;24.74;44.34
73338;BME280;61575;49.908;35.556;2023-07-13T06:15:22;99245.09;;;24.78;43.91
73338;BME280;61575;49.908;35.556;2023-07-13T06:18:24;99247.31;;;24.96;44.48
73338;BME280;61575;49.908;35.556;2023-07-13T06:21:25;99243.22;;;25.19;44.07
73338;BME280;61575;49.908;35.556;2023-07-13T06:24:27;99241.09;;;25.46;43.27
73338;BME280;61575;49.908;35.556;2023-07-13T06:27:29;99238.06;;;25.53;42.67
73338;BME280;61575;49.908;35.556;2023-07-13T06:30:31;99237.78;;;25.85;42.81
73338;BME280;61575;49.908;35.556;2023-07-13T06:33:34;99246.56;;;26.17;42.51
73338;BME280;61575;49.908;35.556;2023-07-13T06:36:35;99239.09;;;26.33;42.60
73338;BME280;61575;49.908;35.556;2023-07-13T06:39:38;99246.47;;;26.48;41.99
73338;BME280;61575;49.908;35.556;2023-07-13T06:42:39;99242.31;;;26.66;41.66
73338;BME280;61575;49.908;35.556;2023-07-13T06:45:45;99241.44;;;26.75;40.12
73338;BME280;61575;49.908;35.556;2023-07-13T06:48:51;99240.25;;;26.91;40.50
73338;BME280;61575;49.908;35.556;2023-07-13T06:51:53;99236.09;;;26.99;39.93
73338;BME280;61575;49.908;35.556;2023-07-13T06:54:55;99242.09;;;27.06;39.77
73338;BME280;61575;49.908;35.556;2023-07-13T06:57:57;99232.13;;;26.66;36.75
73338;BME280;61575;49.908;35.556;2023-07-13T07:00:59;99233.94;;;26.86;38.51
73338;BME280;61575;49.908;35.556;2023-07-13T07:04:01;99232.44;;;27.09;38.63
73338;BME280;61575;49.908;35.556;2023-07-13T07:07:03;99228.78;;;27.23;37.95
73338;BME280;61575;49.908;35.556;2023-07-13T07:10:06;99220.03;;;27.11;37.33
73338;BME280;61575;49.908;35.556;2023-07-13T07:13:08;99226.78;;;27.34;36.69
73338;BME280;61575;49.908;35.556;2023-07-13T07:16:10;99230.50;;;27.53;36.47
73338;BME280;61575;49.908;35.556;2023-07-13T07:19:12;99225.28;;;27.52;34.80
73338;BME280;61575;49.908;35.556;2023-07-13T07:22:14;99226.13;;;27.47;36.45
73338;BME280;61575;49.908;35.556;2023-07-13T07:25:16;99231.16;;;27.40;36.49
73338;BME280;61575;49.908;35.556;2023-07-13T07:28:18;99229.88;;;27.27;36.13
73338;BME280;61575;49.908;35.556;2023-07-13T07:31:23;99217.91;;;27.42;37.12
73338;BME280;61575;49.908;35.556;2023-07-13T07:34:28;99221.81;;;27.36;36.79
73338;BME280;61575;49.908;35.556;2023-07-13T07:37:30;99228.94;;;27.42;37.17
73338;BME280;61575;49.908;35.556;2023-07-13T07:40:39;99225.97;;;27.34;36.84
73338;BME280;61575;49.908;35.556;2023-07-13T07:43:44;99224.78;;;27.01;36.86
73338;BME280;61575;49.908;35.556;2023-07-13T07:46:46;99231.44;;;26.94;36.60
73338;BME280;61575;49.908;35.556;2023-07-13T07:49:48;99223.50;;;27.32;36.48
73338;BME280;61575;49.908;35.556;2023-07-13T07:52:51;99231.72;;;27.71;36.41
73338;BME280;61575;49.908;35.556;2023-07-13T07:55:53;99229.25;;;27.75;35.67
73338;BME280;61575;49.908;35.556;2023-07-13T07:58:58;99229.41;;;27.88;35.33
73338;BME280;61575;49.908;35.556;2023-07-13T08:02:03;99223.13;;;28.07;35.83
73338;BME280;61575;49.908;35.556;2023-07-13T08:05:08;99229.03;;;28.24;35.36
73338;BME280;61575;49.908;35.556;2023-07-13T08:08:13;99240.53;;;28.07;36.04
73338;BME280;61575;49.908;35.556;2023-07-13T08:11:16;99248.97;;;27.92;35.80
73338;BME280;61575;49.908;35.556;2023-07-13T08:14:21;99238.56;;;27.45;35.71
73338;BME280;61575;49.908;35.556;2023-07-13T08:17:23;99227.69;;;27.58;36.77
73338;BME280;61575;49.908;35.556;2023-07-13T08:20:26;99238.69;;;27.64;35.82
73338;BME280;61575;49.908;35.556;2023-07-13T08:23:27;99222.75;;;27.55;36.62
73338;BME280;61575;49.908;35.556;2023-07-13T08:26:32;99236.75;;;27.30;36.76
73338;BME280;61575;49.908;35.556;2023-07-13T08:29:34;99236.88;;;27.05;36.43
73338;BME280;61575;49.908;35.556;2023-07-13T08:32:36;99230.28;;;27.01;36.99
73338;BME280;61575;49.908;35.556;2023-07-13T08:35:38;99223.91;;;27.05;37.57
73338;BME280;61575;49.908;35.556;2023-07-13T08:38:40;99227.88;;;26.89;38.06
73338;BME280;61575;49.908;35.556;2023-07-13T08:41:45;99229.84;;;26.83;37.17
73338;BME280;61575;49.908;35.556;2023-07-13T08:45:33;99224.28;;;26.88;38.43
73338;BME280;61575;49.908;35.556;2023-07-13T08:48:29;99237.94;;;26.54;38.23
73338;BME280;61575;49.908;35.556;2023-07-13T08:51:43;99230.53;;;26.40;38.54
73338;BME280;61575;49.908;35.556;2023-07-13T08:54:49;99219.75;;;26.58;39.08
73338;BME280;61575;49.908;35.556;2023-07-13T08:58:00;99227.47;;;27.16;38.81
73338;BME280;61575;49.908;35.556;2023-07-13T09:01:22;99230.75;;;27.57;38.25
73338;BME280;61575;49.908;35.556;2023-07-13T09:04:32;99237.88;;;27.63;36.62
73338;BME280;61575;49.908;35.556;2023-07-13T09:17:30;99237.56;;;27.31;38.13
73338;BME280;61575;49.908;35.556;2023-07-13T09:20:37;99246.44;;;27.22;37.64
73338;BME280;61575;49.908;35.556;2023-07-13T09:23:43;99236.84;;;27.10;38.36
73338;BME280;61575;49.908;35.556;2023-07-13T09:26:45;99238.06;;;27.38;38.53
73338;BME280;61575;49.908;35.556;2023-07-13T09:30:02;99238.66;;;27.69;36.94
73338;BME280;61575;49.908;35.556;2023-07-13T09:33:10;99236.13;;;28.06;37.30
73338;BME280;61575;49.908;35.556;2023-07-13T09:36:20;99228.22;;;27.95;36.89
73338;BME280;61575;49.908;35.556;2023-07-13T09:39:37;99234.72;;;28.09;38.96
73338;BME280;61575;49.908;35.556;2023-07-13T09:42:41;99228.78;;;28.20;37.57
73338;BME280;61575;49.908;35.556;2023-07-13T09:45:45;99228.53;;;28.46;37.71
73338;BME280;61575;49.908;35.556;2023-07-13T09:48:49;99223.94;;;28.60;37.85
73338;BME280;61575;49.908;35.556;2023-07-13T09:51:58;99223.38;;;28.82;38.50
73338;BME280;61575;49.908;35.556;2023-07-13T09:55:02;99217.84;;;28.82;37.63
73338;BME280;61575;49.908;35.556;2023-07-13T09:58:12;99226.84;;;28.93;37.93
73338;BME280;61575;49.908;35.556;2023-07-13T10:01:15;99222.91;;;28.99;37.09
73338;BME280;61575;49.908;35.556;2023-07-13T10:04:19;99220.06;;;29.23;37.31
73338;BME280;61575;49.908;35.556;2023-07-13T10:07:22;99204.19;;;29.47;36.44
73338;BME280;61575;49.908;35.556;2023-07-13T10:10:30;99206.50;;;29.59;36.66
73338;BME280;61575;49.908;35.556;2023-07-13T10:13:39;99198.72;;;29.61;36.74
73338;BME280;61575;49.908;35.556;2023-07-13T10:16:45;99193.91;;;29.15;37.30
73338;BME280;61575;49.908;35.556;2023-07-13T10:19:48;99194.63;;;28.83;37.25
73338;BME280;61575;49.908;35.556;2023-07-13T10:23:02;99190.75;;;28.41;37.51
73338;BME280;61575;49.908;35.556;2023-07-13T10:26:13;99178.41;;;28.34;38.70
73338;BME280;61575;49.908;35.556;2023-07-13T10:29:17;99186.28;;;28.45;38.25
73338;BME280;61575;49.908;35.556;2023-07-13T10:32:24;99179.06;;;28.68;37.39
73338;BME280;61575;49.908;35.556;2023-07-13T10:35:29;99176.03;;;29.07;38.16
73338;BME280;61575;49.908;35.556;2023-07-13T10:38:31;99171.78;;;29.47;38.13
73338;BME280;61575;49.908;35.556;2023-07-13T10:41:38;99173.81;;;29.61;37.39
73338;BME280;61575;49.908;35.556;2023-07-13T10:44:42;99179.63;;;29.92;37.74
73338;BME280;61575;49.908;35.556;2023-07-13T10:47:45;99169.88;;;29.94;37.54
73338;BME280;61575;49.908;35.556;2023-07-13T10:50:50;99167.00;;;29.99;36.67
73338;BME280;61575;49.908;35.556;2023-07-13T10:54:16;99152.47;;;30.07;36.58
73338;BME280;61575;49.908;35.556;2023-07-13T10:57:22;99161.88;;;30.20;36.19
73338;BME280;61575;49.908;35.556;2023-07-13T11:00:24;99153.38;;;30.30;36.60
73338;BME280;61575;49.908;35.556;2023-07-13T11:03:28;99162.41;;;30.22;35.36
73338;BME280;61575;49.908;35.556;2023-07-13T11:06:38;99155.00;;;30.18;35.89
73338;BME280;61575;49.908;35.556;2023-07-13T11:09:43;99152.66;;;30.11;36.36
73338;BME280;61575;49.908;35.556;2023-07-13T11:12:53;99161.78;;;30.11;35.98
73338;BME280;61575;49.908;35.556;2023-07-13T11:15:55;99149.16;;;30.19;36.26
73338;BME280;61575;49.908;35.556;2023-07-13T11:25:32;99141.53;;;30.52;37.03
73338;BME280;61575;49.908;35.556;2023-07-13T11:28:36;99155.31;;;30.30;36.00
73338;BME280;61575;49.908;35.556;2023-07-13T11:31:39;99149.22;;;29.59;36.52
73338;BME280;61575;49.908;35.556;2023-07-13T11:34:41;99141.09;;;29.30;37.30
73338;BME280;61575;49.908;35.556;2023-07-13T11:37:45;99138.69;;;29.42;37.66
73338;BME280;61575;49.908;35.556;2023-07-13T11:40:48;99130.97;;;29.07;36.65
73338;BME280;61575;49.908;35.556;2023-07-13T11:47:19;99120.81;;;29.54;37.19
73338;BME280;61575;49.908;35.556;2023-07-13T11:50:24;99117.47;;;29.84;37.34
73338;BME280;61575;49.908;35.556;2023-07-13T11:53:29;99103.00;;;29.73;36.01
73338;BME280;61575;49.908;35.556;2023-07-13T11:56:31;99101.25;;;29.91;37.16
73338;BME280;61575;49.908;35.556;2023-07-13T11:59:38;99093.47;;;29.79;36.17
73338;BME280;61575;49.908;35.556;2023-07-13T12:02:44;99092.44;;;29.75;36.61
73338;BME280;61575;49.908;35.556;2023-07-13T12:06:01;99091.13;;;29.40;37.15
73338;BME280;61575;49.908;35.556;2023-07-13T12:09:14;99082.50;;;29.28;38.09
73338;BME280;61575;49.908;35.556;2023-07-13T12:12:22;99088.25;;;29.32;38.27
73338;BME280;61575;49.908;35.556;2023-07-13T12:15:30;99082.38;;;29.52;38.02
73338;BME280;61575;49.908;35.556;2023-07-13T12:18:37;99074.38;;;29.64;37.79
73338;BME280;61575;49.908;35.556;2023-07-13T12:21:41;99052.44;;;29.95;37.66
73338;BME280;61575;49.908;35.556;2023-07-13T12:24:44;99058.59;;;29.92;37.49
73338;BME280;61575;49.908;35.556;2023-07-13T12:27:51;99057.19;;;29.81;37.59
73338;BME280;61575;49.908;35.556;2023-07-13T12:30:58;99053.41;;;30.04;36.65
73338;BME280;61575;49.908;35.556;2023-07-13T12:34:05;99047.91;;;30.13;36.93
73338;BME280;61575;49.908;35.556;2023-07-13T12:37:11;99045.47;;;29.98;36.56
73338;BME280;61575;49.908;35.556;2023-07-13T12:40:18;99035.03;;;30.44;38.30
73338;BME280;61575;49.908;35.556;2023-07-13T12:43:22;99034.56;;;30.87;36.35
73338;BME280;61575;49.908;35.556;2023-07-13T12:46:26;99028.97;;;31.01;36.24
73338;BME280;61575;49.908;35.556;2023-07-13T12:49:32;99029.28;;;30.99;34.81
73338;BME280;61575;49.908;35.556;2023-07-13T12:52:36;99029.22;;;30.68;35.60
73338;BME280;61575;49.908;35.556;2023-07-13T12:55:56;99028.34;;;30.45;35.88
73338;BME280;61575;49.908;35.556;2023-07-13T12:59:03;99040.72;;;30.26;35.99
73338;BME280;61575;49.908;35.556;2023-07-13T13:02:30;99038.09;;;29.79;36.00
73338;BME280;61575;49.908;35.556;2023-07-13T13:05:35;99024.47;;;29.83;37.19
73338;BME280;61575;49.908;35.556;2023-07-13T13:08:39;99021.56;;;30.02;37.53
73338;BME280;61575;49.908;35.556;2023-07-13T13:11:43;99035.34;;;30.07;37.76
73338;BME280;61575;49.908;35.556;2023-07-13T13:14:45;99024.75;;;29.95;37.30
73338;BME280;61575;49.908;35.556;2023-07-13T13:17:47;99023.97;;;29.81;37.62
73338;BME280;61575;49.908;35.556;2023-07-13T13:20:50;99028.88;;;29.70;37.84
73338;BME280;61575;49.908;35.556;2023-07-13T13:23:52;99018.59;;;29.98;37.34
73338;BME280;61575;49.908;35.556;2023-07-13T13:26:55;99028.09;;;30.20;37.20
73338;BME280;61575;49.908;35.556;2023-07-13T13:30:00;99024.56;;;30.41;36.99
73338;BME280;61575;49.908;35.556;2023-07-13T13:33:02;99026.44;;;30.68;37.56
73338;BME280;61575;49.908;35.556;2023-07-13T13:36:04;99021.59;;;30.38;37.07
73338;BME280;61575;49.908;35.556;2023-07-13T13:39:36;99020.06;;;30.09;36.71
73338;BME280;61575;49.908;35.556;2023-07-13T13:42:39;99019.59;;;30.16;37.85
73338;BME280;61575;49.908;35.556;2023-07-13T13:45:41;99012.69;;;30.27;37.67
73338;BME280;61575;49.908;35.556;2023-07-13T13:48:43;99003.81;;;30.17;36.36
73338;BME280;61575;49.908;35.556;2023-07-13T13:51:45;99007.59;;;30.21;36.71
73338;BME280;61575;49.908;35.556;2023-07-13T13:54:47;99003.25;;;30.28;36.44
73338;BME280;61575;49.908;35.556;2023-07-13T13:57:49;99001.66;;;30.13;36.47
73338;BME280;61575;49.908;35.556;2023-07-13T14:00:51;99006.94;;;29.60;36.10
73338;BME280;61575;49.908;35.556;2023-07-13T14:03:54;98993.53;;;29.54;37.08
73338;BME280;61575;49.908;35.556;2023-07-13T14:06:56;98991.63;;;29.35;37.17
73338;BME280;61575;49.908;35.556;2023-07-13T14:09:59;98997.63;;;29.70;37.25
73338;BME280;61575;49.908;35.556;2023-07-13T14:13:01;98995.78;;;29.52;36.39
73338;BME280;61575;49.908;35.556;2023-07-13T14:16:11;98989.81;;;29.44;36.60
73338;BME280;61575;49.908;35.556;2023-07-13T14:19:15;98992.69;;;29.53;36.45
73338;BME280;61575;49.908;35.556;2023-07-13T14:22:20;98986.66;;;29.51;36.25
73338;BME280;61575;49.908;35.556;2023-07-13T14:25:25;98984.78;;;29.46;36.07
73338;BME280;61575;49.908;35.556;2023-07-13T14:28:28;98978.06;;;29.53;36.26
73338;BME280;61575;49.908;35.556;2023-07-13T14:31:30;98971.47;;;29.76;36.66
73338;BME280;61575;49.908;35.556;2023-07-13T14:34:32;98961.09;;;29.95;36.70
73338;BME280;61575;49.908;35.556;2023-07-13T14:37:35;98953.50;;;29.87;36.22
73338;BME280;61575;49.908;35.556;2023-07-13T14:40:37;98955.22;;;29.97;35.83
73338;BME280;61575;49.908;35.556;2023-07-13T14:43:43;98958.13;;;29.78;35.68
73338;BME280;61575;49.908;35.556;2023-07-13T14:46:45;98951.69;;;29.69;35.89
73338;BME280;61575;49.908;35.556;2023-07-13T14:49:48;98956.31;;;29.73;36.48
73338;BME280;61575;49.908;35.556;2023-07-13T14:52:50;98944.53;;;29.68;35.64
73338;BME280;61575;49.908;35.556;2023-07-13T14:55:52;98942.78;;;29.58;36.08
73338;BME280;61575;49.908;35.556;2023-07-13T14:58:54;98945.53;;;29.44;35.77
73338;BME280;61575;49.908;35.556;2023-07-13T15:01:56;98937.34;;;29.39;36.32
73338;BME280;61575;49.908;35.556;2023-07-13T15:04:58;98926.78;;;29.28;36.81
73338;BME280;61575;49.908;35.556;2023-07-13T15:08:02;98932.53;;;29.31;36.83
73338;BME280;61575;49.908;35.556;2023-07-13T15:11:05;98930.81;;;29.49;36.70
73338;BME280;61575;49.908;35.556;2023-07-13T15:14:07;98932.00;;;29.70;36.66
73338;BME280;61575;49.908;35.556;2023-07-13T15:17:34;98935.78;;;29.74;36.98
73338;BME280;61575;49.908;35.556;2023-07-13T15:20:38;98939.59;;;29.65;36.83
73338;BME280;61575;49.908;35.556;2023-07-13T15:23:41;98943.09;;;29.57;37.02
73338;BME280;61575;49.908;35.556;2023-07-13T15:26:43;98935.94;;;29.56;37.15
73338;BME280;61575;49.908;35.556;2023-07-13T15:29:50;98943.06;;;29.43;36.63
73338;BME280;61575;49.908;35.556;2023-07-13T15:32:53;98941.06;;;29.48;37.15
73338;BME280;61575;49.908;35.556;2023-07-13T15:35:56;98940.41;;;29.24;37.53
73338;BME280;61575;49.908;35.556;2023-07-13T15:39:00;98938.25;;;29.21;38.07
73338;BME280;61575;49.908;35.556;2023-07-13T15:42:02;98940.19;;;29.07;37.86
73338;BME280;61575;49.908;35.556;2023-07-13T15:45:05;98932.84;;;28.83;38.63
73338;BME280;61575;49.908;35.556;2023-07-13T15:48:21;98933.81;;;28.60;38.71
73338;BME280;61575;49.908;35.556;2023-07-13T15:51:28;98931.41;;;28.40;40.00
73338;BME280;61575;49.908;35.556;2023-07-13T15:54:31;98931.47;;;28.16;39.92
73338;BME280;61575;49.908;35.556;2023-07-13T15:57:34;98936.09;;;28.02;40.72
73338;BME280;61575;49.908;35.556;2023-07-13T16:00:37;98934.47;;;27.82;40.69
73338;BME280;61575;49.908;35.556;2023-07-13T16:03:42;98936.78;;;27.70;41.10
73338;BME280;61575;49.908;35.556;2023-07-13T16:06:45;98948.56;;;27.56;41.21
73338;BME280;61575;49.908;35.556;2023-07-13T16:09:47;98945.69;;;27.43;41.62
73338;BME280;61575;49.908;35.556;2023-07-13T16:12:51;98945.81;;;27.33;42.14
73338;BME280;61575;49.908;35.556;2023-07-13T16:15:54;98946.22;;;27.21;41.97
73338;BME280;61575;49.908;35.556;2023-07-13T16:19:01;98944.72;;;27.05;42.82
73338;BME280;61575;49.908;35.556;2023-07-13T16:22:03;98946.50;;;26.90;42.96
73338;BME280;61575;49.908;35.556;2023-07-13T16:25:18;98949.66;;;26.79;43.62
73338;BME280;61575;49.908;35.556;2023-07-13T16:28:22;98939.81;;;26.73;43.45
73338;BME280;61575;49.908;35.556;2023-07-13T16:31:24;98939.31;;;26.66;44.05
73338;BME280;61575;49.908;35.556;2023-07-13T16:34:27;98941.88;;;26.57;44.35